Time;durP1;ratioP1;P1;durP2;ratioP2;P2;SDS_P1;SDS_P2;PMS_P1;PMS_P2;Temp;Humidity;BMP_temperature;BMP_pressure;BME280_temperature;BME280_humidity;BME280_pressure;Samples;Min_cycle;Max_cycle;Signal;HPM_P1;HPM_P2
2023/12/24 00:01:03;;;;;;;10.07;2.35;;;8.90;99.90;;;;;;5046795;28;20088;-91
2023/12/24 00:03:29;;;;;;;10.15;2.05;;;8.90;99.90;;;;;;5083807;28;20064;-91
2023/12/24 00:05:54;;;;;;;9.63;2.50;;;8.80;99.90;;;;;;5063737;28;20028;-92
2023/12/24 00:08:20;;;;;;;10.48;2.38;;;8.80;99.90;;;;;;5078993;28;20713;-91
2023/12/24 00:10:46;;;;;;;11.32;2.55;;;8.70;99.90;;;;;;5033222;28;20039;-92
2023/12/24 00:13:11;;;;;;;8.95;2.55;;;8.80;99.90;;;;;;5064714;28;20263;-91
2023/12/24 00:15:37;;;;;;;11.63;2.40;;;8.90;99.90;;;;;;5049428;28;20038;-92
2023/12/24 00:18:03;;;;;;;9.88;2.47;;;9.00;99.90;;;;;;5030001;28;20036;-92
2023/12/24 00:20:29;;;;;;;9.80;2.45;;;8.90;99.90;;;;;;5062147;28;20236;-90
2023/12/24 00:23:05;;;;;;;9.05;2.63;;;9.00;99.90;;;;;;5080200;28;20024;-91
2023/12/24 00:25:31;;;;;;;13.15;2.67;;;9.10;99.90;;;;;;5079479;28;20052;-91
2023/12/24 00:27:58;;;;;;;13.15;2.50;;;8.80;99.90;;;;;;5046807;28;20273;-92
2023/12/24 00:30:26;;;;;;;9.30;2.50;;;8.80;99.90;;;;;;5040498;28;20040;-90
2023/12/24 00:32:56;;;;;;;9.38;2.58;;;8.90;99.90;;;;;;5045573;28;20145;-92
2023/12/24 00:35:22;;;;;;;10.55;2.72;;;9.00;99.90;;;;;;5078873;28;20034;-90
2023/12/24 00:37:49;;;;;;;12.27;3.00;;;9.00;99.90;;;;;;5045272;28;20024;-92
2023/12/24 00:40:16;;;;;;;10.13;2.40;;;9.00;99.90;;;;;;5061742;28;20055;-91
2023/12/24 00:42:42;;;;;;;10.35;2.67;;;9.00;99.90;;;;;;5072402;28;20187;-90
2023/12/24 00:45:11;;;;;;;10.50;2.40;;;9.00;99.90;;;;;;5080198;28;20087;-91
2023/12/24 00:47:38;;;;;;;11.70;2.75;;;9.10;99.90;;;;;;5060745;28;20131;-90
2023/12/24 00:50:06;;;;;;;10.07;2.90;;;8.90;99.90;;;;;;5057622;28;20055;-92
2023/12/24 00:52:32;;;;;;;7.82;2.15;;;8.90;99.90;;;;;;5075222;28;20033;-92
2023/12/24 00:54:58;;;;;;;9.82;2.83;;;9.10;99.90;;;;;;5040495;28;20048;-92
2023/12/24 00:57:24;;;;;;;8.63;2.33;;;9.10;99.90;;;;;;5060875;28;20041;-92
2023/12/24 00:59:49;;;;;;;14.32;2.55;;;9.00;99.90;;;;;;5042968;28;20037;-92
2023/12/24 01:02:15;;;;;;;9.68;2.50;;;9.00;99.90;;;;;;5044190;28;20064;-92
2023/12/24 01:04:41;;;;;;;9.10;2.60;;;9.00;99.90;;;;;;5045652;28;20052;-92
2023/12/24 01:07:07;;;;;;;10.32;2.55;;;8.90;99.90;;;;;;5045922;28;20222;-91
2023/12/24 01:09:32;;;;;;;11.02;2.60;;;9.10;99.90;;;;;;5042779;28;20037;-92
2023/12/24 01:11:58;;;;;;;13.05;2.50;;;9.00;99.90;;;;;;5077177;28;20237;-91
2023/12/24 01:14:23;;;;;;;11.10;2.78;;;9.10;99.90;;;;;;5041825;28;20032;-92
2023/12/24 01:16:49;;;;;;;11.27;2.22;;;8.80;99.90;;;;;;5045216;28;20277;-93
2023/12/24 01:19:15;;;;;;;10.68;2.55;;;8.90;99.90;;;;;;5059231;28;20037;-93
2023/12/24 01:21:40;;;;;;;11.18;2.88;;;8.90;99.90;;;;;;5046365;28;20048;-92
2023/12/24 01:24:06;;;;;;;10.98;2.67;;;9.00;99.90;;;;;;5062853;28;20150;-91
2023/12/24 01:26:34;;;;;;;9.18;2.75;;;8.80;99.90;;;;;;5060612;28;20047;-92
2023/12/24 01:29:00;;;;;;;11.70;2.53;;;9.00;99.90;;;;;;5045004;28;20032;-90
2023/12/24 01:31:27;;;;;;;9.27;2.58;;;8.90;99.90;;;;;;5063756;28;20044;-92
2023/12/24 01:33:53;;;;;;;9.43;2.22;;;8.80;99.90;;;;;;5063827;28;20025;-90
2023/12/24 01:36:22;;;;;;;10.98;2.60;;;9.00;99.90;;;;;;5083354;28;20028;-92
2023/12/24 01:38:48;;;;;;;9.20;2.20;;;9.00;99.90;;;;;;5082491;28;20032;-92
2023/12/24 01:41:14;;;;;;;10.80;2.47;;;8.90;99.90;;;;;;5062419;28;20083;-92
2023/12/24 01:43:44;;;;;;;8.15;1.90;;;8.80;99.90;;;;;;5057373;28;20045;-92
2023/12/24 01:46:12;;;;;;;7.45;2.20;;;9.00;99.90;;;;;;5065004;28;20103;-92
2023/12/24 01:48:39;;;;;;;9.75;2.50;;;8.80;99.90;;;;;;5108534;28;20143;-89
2023/12/24 01:51:06;;;;;;;7.72;2.42;;;9.00;99.90;;;;;;5063113;28;20036;-91
2023/12/24 01:53:32;;;;;;;7.57;2.20;;;8.90;99.90;;;;;;5028269;28;20036;-92
2023/12/24 01:56:07;;;;;;;7.78;2.30;;;8.90;99.90;;;;;;5063011;28;20032;-90
2023/12/24 01:58:33;;;;;;;6.40;1.98;;;8.80;99.90;;;;;;5063169;28;20121;-92
2023/12/24 02:00:58;;;;;;;10.30;2.30;;;8.90;99.90;;;;;;5048445;28;20028;-91
2023/12/24 02:03:24;;;;;;;7.43;2.15;;;8.90;99.90;;;;;;5032302;28;20104;-92
2023/12/24 02:05:50;;;;;;;6.88;1.80;;;8.90;99.90;;;;;;5079827;28;20262;-91
2023/12/24 02:08:21;;;;;;;7.13;1.95;;;8.80;99.90;;;;;;5047372;28;20046;-92
2023/12/24 02:10:48;;;;;;;5.03;1.80;;;8.90;99.90;;;;;;5047699;28;20082;-92
2023/12/24 02:13:14;;;;;;;5.95;1.80;;;8.80;99.90;;;;;;5063552;28;20025;-90
2023/12/24 02:15:40;;;;;;;5.32;1.60;;;9.00;99.90;;;;;;5049292;28;20036;-91
2023/12/24 02:18:07;;;;;;;5.40;1.60;;;8.90;99.90;;;;;;5063613;28;20025;-92
2023/12/24 02:20:33;;;;;;;5.60;1.83;;;8.90;99.90;;;;;;5062422;28;20032;-92
2023/12/24 02:22:58;;;;;;;4.88;1.75;;;8.90;99.90;;;;;;5062317;28;20085;-92
2023/12/24 02:25:26;;;;;;;6.50;2.00;;;9.00;99.90;;;;;;5063821;28;20452;-91
2023/12/24 02:27:57;;;;;;;5.60;1.92;;;9.00;99.90;;;;;;5064775;28;20021;-92
2023/12/24 02:30:29;;;;;;;5.95;1.70;;;8.90;99.90;;;;;;5064991;28;20036;-92
2023/12/24 02:32:56;;;;;;;5.18;1.90;;;9.10;99.90;;;;;;5078441;28;20263;-92
2023/12/24 02:35:24;;;;;;;7.25;2.05;;;8.90;99.90;;;;;;5065538;28;20063;-93
2023/12/24 02:37:51;;;;;;;7.57;2.78;;;8.90;99.90;;;;;;5075965;28;20044;-92
2023/12/24 02:40:16;;;;;;;6.97;1.92;;;9.10;99.90;;;;;;5043555;28;20084;-91
2023/12/24 02:42:42;;;;;;;7.53;1.95;;;9.00;99.90;;;;;;5076053;28;20275;-92
2023/12/24 02:45:08;;;;;;;8.10;2.00;;;9.10;99.90;;;;;;5045191;28;21238;-92
2023/12/24 02:47:34;;;;;;;9.15;2.20;;;9.00;99.90;;;;;;5047506;28;20052;-91
2023/12/24 02:49:59;;;;;;;8.02;2.20;;;9.00;99.90;;;;;;5064462;28;20036;-92
2023/12/24 02:52:25;;;;;;;9.00;2.10;;;9.10;99.90;;;;;;5062128;28;20116;-92
2023/12/24 02:54:51;;;;;;;9.63;2.33;;;9.00;99.90;;;;;;5048242;28;20048;-93
2023/12/24 02:57:16;;;;;;;8.73;2.30;;;9.20;99.90;;;;;;5046213;28;20047;-92
2023/12/24 02:59:42;;;;;;;7.10;2.38;;;8.90;99.90;;;;;;5046266;28;20078;-92
2023/12/24 03:02:08;;;;;;;8.45;1.90;;;9.10;99.90;;;;;;5047266;28;20060;-92
2023/12/24 03:04:33;;;;;;;8.68;2.08;;;9.20;99.90;;;;;;5043138;28;20044;-93
2023/12/24 03:06:59;;;;;;;8.43;2.17;;;8.90;99.90;;;;;;5042918;28;20207;-92
2023/12/24 03:09:25;;;;;;;7.88;2.00;;;9.10;99.90;;;;;;5045741;28;20053;-90
2023/12/24 03:11:51;;;;;;;10.23;2.05;;;9.00;99.90;;;;;;5041422;28;20061;-92
2023/12/24 03:14:16;;;;;;;8.57;2.05;;;9.20;99.90;;;;;;5079623;28;20328;-91
2023/12/24 03:16:42;;;;;;;7.70;1.90;;;9.20;99.90;;;;;;5064294;28;20036;-92
2023/12/24 03:19:08;;;;;;;9.23;1.98;;;9.00;99.90;;;;;;5046539;28;20032;-91
2023/12/24 03:21:34;;;;;;;7.20;1.98;;;9.20;99.90;;;;;;5063559;28;20060;-91
2023/12/24 03:23:59;;;;;;;5.80;1.70;;;9.20;99.90;;;;;;5062640;28;20104;-92
2023/12/24 03:26:25;;;;;;;6.72;2.17;;;9.00;99.90;;;;;;5057528;28;20139;-92
2023/12/24 03:28:51;;;;;;;7.65;1.95;;;9.10;99.90;;;;;;5048135;28;20041;-92
2023/12/24 03:31:17;;;;;;;5.28;1.85;;;9.00;99.90;;;;;;5078069;28;20035;-91
2023/12/24 03:33:43;;;;;;;7.28;1.90;;;9.10;99.90;;;;;;5048598;28;20028;-91
2023/12/24 03:36:10;;;;;;;7.00;1.80;;;9.10;99.90;;;;;;5062743;28;20114;-92
2023/12/24 03:38:36;;;;;;;4.88;1.60;;;9.20;99.90;;;;;;5066079;28;20092;-89
2023/12/24 03:41:02;;;;;;;4.93;1.65;;;8.90;99.90;;;;;;5050959;28;20351;-91
2023/12/24 03:43:29;;;;;;;5.05;1.70;;;8.90;99.90;;;;;;5051149;28;20044;-89
2023/12/24 03:45:55;;;;;;;4.55;1.48;;;9.10;99.90;;;;;;5082695;28;20040;-91
2023/12/24 03:48:20;;;;;;;7.68;1.50;;;9.00;99.90;;;;;;5066380;28;20043;-91
2023/12/24 03:50:47;;;;;;;4.68;1.60;;;8.90;99.90;;;;;;5033617;28;20301;-90
2023/12/24 03:53:13;;;;;;;5.30;1.80;;;9.10;99.90;;;;;;5049096;28;20024;-91
2023/12/24 03:55:38;;;;;;;6.15;1.50;;;9.20;99.90;;;;;;5050916;28;20326;-91
2023/12/24 03:58:04;;;;;;;6.32;1.58;;;8.90;99.90;;;;;;5048511;28;20484;-91
2023/12/24 04:00:30;;;;;;;4.75;1.42;;;9.20;99.90;;;;;;5034343;28;20024;-92
2023/12/24 04:02:55;;;;;;;5.53;1.50;;;9.00;99.90;;;;;;5083328;28;20046;-91
2023/12/24 04:05:21;;;;;;;5.55;1.60;;;9.10;99.90;;;;;;5048980;28;20051;-91
2023/12/24 04:07:47;;;;;;;5.68;1.60;;;9.10;99.90;;;;;;5046926;28;20040;-91
2023/12/24 04:10:13;;;;;;;3.08;1.20;;;9.20;99.90;;;;;;5049076;28;20039;-91
2023/12/24 04:12:40;;;;;;;3.83;1.35;;;9.00;99.90;;;;;;5082620;28;20306;-92
2023/12/24 04:15:07;;;;;;;3.97;1.38;;;9.00;99.90;;;;;;5082488;28;20032;-91
2023/12/24 04:17:37;;;;;;;4.72;1.58;;;9.10;99.90;;;;;;5083059;28;20024;-90
2023/12/24 04:20:04;;;;;;;2.78;1.13;;;9.20;99.90;;;;;;5066895;28;20322;-91
2023/12/24 04:22:30;;;;;;;1.98;1.20;;;9.30;99.90;;;;;;5045146;28;20031;-91
2023/12/24 04:24:57;;;;;;;3.30;1.23;;;9.30;99.90;;;;;;5063070;28;20103;-92
2023/12/24 04:27:23;;;;;;;4.70;1.38;;;9.20;99.90;;;;;;5079753;28;20104;-90
2023/12/24 04:29:49;;;;;;;4.40;1.33;;;9.10;99.90;;;;;;5031020;28;20189;-91
2023/12/24 04:32:16;;;;;;;4.93;1.50;;;9.30;99.90;;;;;;5063285;28;20162;-90
2023/12/24 04:34:42;;;;;;;4.32;1.35;;;9.20;99.90;;;;;;5048302;28;20029;-91
2023/12/24 04:37:09;;;;;;;4.97;1.40;;;9.10;99.90;;;;;;5066411;28;20059;-92
2023/12/24 04:39:34;;;;;;;3.40;1.30;;;9.30;99.90;;;;;;5063888;28;20054;-92
2023/12/24 04:42:00;;;;;;;1.77;1.10;;;9.10;99.90;;;;;;5042573;28;20036;-91
2023/12/24 04:44:26;;;;;;;1.52;1.10;;;9.10;99.90;;;;;;5064388;28;20028;-92
2023/12/24 04:46:52;;;;;;;2.35;1.17;;;9.30;99.90;;;;;;5049136;28;20375;-92
2023/12/24 04:49:17;;;;;;;2.20;1.20;;;9.30;99.90;;;;;;5059084;28;20056;-92
2023/12/24 04:51:43;;;;;;;3.75;1.27;;;9.10;99.90;;;;;;5027173;28;20055;-91
2023/12/24 04:54:09;;;;;;;2.53;1.10;;;9.20;99.90;;;;;;5044811;28;20039;-91
2023/12/24 04:56:34;;;;;;;1.45;1.00;;;9.20;99.90;;;;;;5030897;28;20028;-90
2023/12/24 04:59:00;;;;;;;2.63;1.25;;;9.40;99.90;;;;;;5083239;28;20031;-91
2023/12/24 05:01:26;;;;;;;2.63;1.10;;;9.40;99.90;;;;;;5045089;28;20032;-91
2023/12/24 05:03:52;;;;;;;3.45;1.20;;;9.40;99.90;;;;;;5083054;28;20024;-91
2023/12/24 05:06:18;;;;;;;4.03;1.27;;;9.40;99.90;;;;;;5086558;28;20043;-90
2023/12/24 05:08:44;;;;;;;3.00;1.30;;;9.50;99.90;;;;;;5069800;28;21482;-91
2023/12/24 05:11:09;;;;;;;1.77;1.20;;;9.30;99.90;;;;;;5086169;28;20042;-90
2023/12/24 05:13:36;;;;;;;1.85;1.23;;;9.40;99.90;;;;;;5065196;28;20188;-91
2023/12/24 05:16:03;;;;;;;3.72;1.30;;;9.30;99.90;;;;;;5067083;28;20058;-91
2023/12/24 05:18:29;;;;;;;3.40;1.33;;;9.40;99.90;;;;;;5070147;28;20043;-91
2023/12/24 05:20:55;;;;;;;3.53;1.30;;;9.30;99.90;;;;;;5064723;28;20040;-91
2023/12/24 05:23:21;;;;;;;4.20;1.27;;;9.60;99.90;;;;;;5054822;28;20023;-90
2023/12/24 05:25:47;;;;;;;3.42;1.30;;;9.30;99.90;;;;;;5065576;28;20036;-91
2023/12/24 05:28:16;;;;;;;5.20;1.60;;;9.50;99.90;;;;;;5065952;28;20063;-90
2023/12/24 05:30:42;;;;;;;5.90;1.50;;;9.40;99.90;;;;;;5045452;28;20043;-90
2023/12/24 05:33:07;;;;;;;5.95;1.70;;;9.50;99.90;;;;;;5049506;28;20044;-91
2023/12/24 05:35:33;;;;;;;5.22;1.50;;;9.50;99.90;;;;;;5068973;28;20052;-91
2023/12/24 05:37:59;;;;;;;8.02;1.95;;;9.70;99.90;;;;;;5048817;28;20082;-91
2023/12/24 05:40:24;;;;;;;7.03;1.80;;;9.40;99.90;;;;;;5032214;28;20157;-91
2023/12/24 05:42:50;;;;;;;5.78;1.55;;;9.70;99.90;;;;;;5083412;28;20051;-92
2023/12/24 05:45:16;;;;;;;4.80;1.60;;;9.60;99.90;;;;;;5064407;28;20040;-91
2023/12/24 05:47:42;;;;;;;5.93;1.73;;;9.70;99.90;;;;;;5069556;28;20028;-90
2023/12/24 05:50:08;;;;;;;6.57;1.60;;;9.60;99.90;;;;;;5068252;28;20141;-90
2023/12/24 05:52:34;;;;;;;6.05;1.75;;;9.60;99.90;;;;;;5081567;28;20036;-90
2023/12/24 05:55:00;;;;;;;8.35;2.30;;;9.60;99.90;;;;;;5053096;28;20036;-91
2023/12/24 05:57:26;;;;;;;6.03;2.00;;;9.50;99.90;;;;;;5085157;28;20039;-91
2023/12/24 05:59:52;;;;;;;6.72;1.85;;;9.80;99.90;;;;;;5068331;28;20040;-91
2023/12/24 06:02:18;;;;;;;6.88;1.83;;;9.60;99.90;;;;;;5046766;28;20024;-91
2023/12/24 06:04:44;;;;;;;7.00;2.08;;;9.60;99.90;;;;;;5068714;28;20258;-90
2023/12/24 06:07:10;;;;;;;8.38;2.30;;;9.60;99.90;;;;;;5077212;28;20024;-91
2023/12/24 06:09:35;;;;;;;8.55;2.13;;;9.60;99.90;;;;;;5069169;28;20104;-91
2023/12/24 06:12:01;;;;;;;8.98;2.30;;;9.60;99.90;;;;;;5069517;28;20035;-91
2023/12/24 06:14:27;;;;;;;10.48;2.30;;;9.80;99.90;;;;;;5052976;28;20043;-90
2023/12/24 06:16:53;;;;;;;8.75;2.38;;;9.80;99.90;;;;;;5051656;28;20174;-90
2023/12/24 06:19:19;;;;;;;10.68;2.65;;;9.60;99.90;;;;;;5062346;28;20285;-91
2023/12/24 06:21:45;;;;;;;11.35;2.50;;;9.80;99.90;;;;;;5085879;28;20035;-91
2023/12/24 06:24:10;;;;;;;13.05;2.75;;;9.90;99.90;;;;;;5067182;28;20027;-90
2023/12/24 06:26:36;;;;;;;13.48;2.60;;;9.80;99.90;;;;;;5048752;28;20067;-90
2023/12/24 06:29:02;;;;;;;10.50;2.28;;;9.70;99.90;;;;;;5052066;28;20047;-91
2023/12/24 06:31:28;;;;;;;10.18;2.53;;;9.80;99.90;;;;;;5045955;28;20270;-90
2023/12/24 06:33:54;;;;;;;12.88;2.67;;;9.90;99.90;;;;;;5049858;28;20035;-90
2023/12/24 06:36:19;;;;;;;10.73;2.72;;;9.70;99.90;;;;;;5030404;28;20043;-89
2023/12/24 06:38:45;;;;;;;9.23;2.65;;;10.00;99.90;;;;;;5084135;28;20367;-88
2023/12/24 06:41:11;;;;;;;10.32;2.38;;;9.70;99.90;;;;;;5076439;28;20056;-91
2023/12/24 06:43:38;;;;;;;9.82;2.80;;;9.90;99.90;;;;;;5067589;28;20269;-89
2023/12/24 06:46:06;;;;;;;11.60;2.25;;;10.00;99.90;;;;;;5066446;28;20028;-90
2023/12/24 06:48:32;;;;;;;15.75;2.60;;;9.70;99.90;;;;;;5078618;28;20047;-90
2023/12/24 06:50:58;;;;;;;10.20;2.53;;;9.80;99.90;;;;;;5044525;28;20108;-88
2023/12/24 06:53:25;;;;;;;12.07;2.35;;;9.90;99.90;;;;;;5033179;28;20085;-88
2023/12/24 06:55:51;;;;;;;10.02;2.10;;;10.00;99.90;;;;;;5083224;28;20065;-90
2023/12/24 06:58:16;;;;;;;12.68;2.45;;;9.90;99.90;;;;;;5082898;28;20111;-90
2023/12/24 07:00:42;;;;;;;9.70;2.30;;;9.80;99.90;;;;;;5082901;28;20044;-89
2023/12/24 07:03:08;;;;;;;10.40;2.13;;;10.00;99.90;;;;;;5051119;28;20407;-91
2023/12/24 07:05:35;;;;;;;6.97;1.98;;;9.70;99.90;;;;;;5065824;28;20036;-90
2023/12/24 07:08:02;;;;;;;9.57;2.50;;;10.00;99.90;;;;;;5049346;28;20097;-90
2023/12/24 07:10:28;;;;;;;12.38;2.20;;;9.70;99.90;;;;;;5033385;28;20047;-90
2023/12/24 07:12:53;;;;;;;10.68;2.38;;;9.70;99.90;;;;;;5064624;28;20039;-90
2023/12/24 07:15:19;;;;;;;11.45;2.33;;;9.90;99.90;;;;;;5068292;28;20038;-89
2023/12/24 07:17:47;;;;;;;10.52;2.15;;;10.10;99.90;;;;;;5063475;28;20069;-90
2023/12/24 07:20:13;;;;;;;10.80;2.60;;;9.90;99.90;;;;;;5050716;28;20036;-87
2023/12/24 07:22:39;;;;;;;9.15;2.30;;;9.90;99.90;;;;;;5045879;28;20043;-90
2023/12/24 07:25:05;;;;;;;9.10;2.30;;;9.90;99.90;;;;;;5052421;28;20044;-90
2023/12/24 07:27:32;;;;;;;8.20;2.22;;;9.90;99.90;;;;;;5082582;28;20032;-91
2023/12/24 07:29:58;;;;;;;12.35;2.85;;;10.00;99.90;;;;;;5066261;28;20044;-90
2023/12/24 07:32:23;;;;;;;15.32;2.90;;;10.00;99.90;;;;;;5066348;28;20039;-90
2023/12/24 07:34:49;;;;;;;9.25;2.72;;;10.10;99.90;;;;;;5052203;28;20028;-89
2023/12/24 07:37:16;;;;;;;13.52;2.67;;;10.20;99.90;;;;;;5033237;28;20032;-90
2023/12/24 07:39:42;;;;;;;11.38;2.42;;;9.90;99.90;;;;;;5065407;28;20071;-89
2023/12/24 07:42:07;;;;;;;10.95;2.55;;;10.30;99.90;;;;;;5081793;28;20037;-90
2023/12/24 07:44:33;;;;;;;13.05;2.75;;;10.20;99.90;;;;;;5062985;28;20624;-90
2023/12/24 07:46:59;;;;;;;13.55;2.80;;;10.00;99.90;;;;;;5045223;28;20265;-91
2023/12/24 07:49:26;;;;;;;11.65;2.35;;;9.90;99.90;;;;;;5051953;28;20077;-90
2023/12/24 07:51:55;;;;;;;12.13;2.60;;;10.30;99.90;;;;;;5065219;28;20039;-88
2023/12/24 07:54:20;;;;;;;9.13;2.25;;;10.10;99.90;;;;;;5045294;28;20055;-91
2023/12/24 07:56:46;;;;;;;9.95;2.40;;;10.20;99.90;;;;;;5029387;28;20219;-90
2023/12/24 07:59:12;;;;;;;13.05;2.67;;;10.10;99.90;;;;;;5063773;28;20072;-89
2023/12/24 08:01:37;;;;;;;11.75;2.80;;;10.20;99.90;;;;;;5047011;28;20040;-90
2023/12/24 08:04:04;;;;;;;10.98;2.90;;;10.40;99.90;;;;;;5065798;28;20031;-90
2023/12/24 08:06:30;;;;;;;11.82;2.60;;;10.00;99.90;;;;;;5065284;28;20032;-91
2023/12/24 08:08:59;;;;;;;8.63;2.35;;;10.00;99.90;;;;;;5048174;28;20071;-89
2023/12/24 08:11:25;;;;;;;10.18;2.50;;;10.10;99.90;;;;;;5080379;28;20043;-90
2023/12/24 08:13:50;;;;;;;7.88;2.13;;;10.20;99.90;;;;;;5049854;28;20036;-90
2023/12/24 08:16:16;;;;;;;9.77;2.30;;;10.20;99.90;;;;;;5062100;28;20262;-90
2023/12/24 08:18:42;;;;;;;10.43;2.45;;;10.10;99.90;;;;;;5064996;28;20099;-89
2023/12/24 08:21:10;;;;;;;12.38;2.55;;;10.20;99.90;;;;;;5092536;28;20044;-92
2023/12/24 08:23:36;;;;;;;8.63;2.05;;;10.20;99.90;;;;;;5064290;28;20307;-91
2023/12/24 08:26:03;;;;;;;9.15;2.15;;;10.30;99.90;;;;;;5080448;28;20115;-91
2023/12/24 08:28:28;;;;;;;12.45;2.83;;;10.30;99.90;;;;;;5084985;28;20174;-92
2023/12/24 08:30:54;;;;;;;11.65;2.58;;;10.10;99.90;;;;;;5075825;28;20036;-91
2023/12/24 08:33:20;;;;;;;10.93;2.55;;;10.20;99.90;;;;;;5033408;28;20115;-91
2023/12/24 08:35:46;;;;;;;13.38;2.70;;;10.30;99.90;;;;;;5064743;28;20177;-91
2023/12/24 08:38:12;;;;;;;11.73;2.78;;;10.40;99.90;;;;;;5101103;28;20055;-92
2023/12/24 08:40:38;;;;;;;10.35;2.72;;;10.40;99.90;;;;;;5050317;28;20109;-92
2023/12/24 08:43:05;;;;;;;8.48;2.40;;;10.10;99.90;;;;;;5051750;28;20032;-92
2023/12/24 08:45:31;;;;;;;9.55;2.60;;;10.20;99.90;;;;;;5086405;28;20099;-92
2023/12/24 08:47:57;;;;;;;12.68;3.08;;;10.40;99.90;;;;;;5083202;28;20059;-92
2023/12/24 08:50:23;;;;;;;11.02;2.30;;;10.40;99.90;;;;;;5068825;28;20050;-93
2023/12/24 08:52:49;;;;;;;12.23;2.65;;;10.20;99.90;;;;;;5047249;28;20028;-93
2023/12/24 08:55:15;;;;;;;10.77;2.47;;;10.50;99.90;;;;;;5047214;28;20032;-92
2023/12/24 08:57:41;;;;;;;10.43;2.50;;;10.40;99.90;;;;;;5056830;28;20046;-92
2023/12/24 09:00:11;;;;;;;13.65;2.78;;;10.20;99.90;;;;;;5059790;28;20181;-90
2023/12/24 09:02:38;;;;;;;10.02;2.70;;;10.30;99.90;;;;;;5040158;28;20031;-92
2023/12/24 09:05:05;;;;;;;10.40;2.25;;;10.60;99.90;;;;;;5040917;28;20056;-90
2023/12/24 09:07:31;;;;;;;8.65;2.70;;;10.60;99.90;;;;;;5063186;28;20052;-90
2023/12/24 09:09:56;;;;;;;11.00;2.45;;;10.50;99.90;;;;;;5048093;28;20078;-91
2023/12/24 09:12:22;;;;;;;11.38;2.60;;;10.60;99.90;;;;;;5069264;28;20028;-92
2023/12/24 09:14:48;;;;;;;9.77;2.30;;;10.60;99.90;;;;;;5063217;28;20047;-92
2023/12/24 09:17:14;;;;;;;12.35;2.97;;;10.60;99.90;;;;;;5064198;28;20111;-91
2023/12/24 09:19:39;;;;;;;10.52;2.45;;;10.60;99.90;;;;;;5065860;28;20050;-90
2023/12/24 09:22:05;;;;;;;12.48;2.35;;;10.70;99.90;;;;;;5048186;28;20031;-90
2023/12/24 09:24:31;;;;;;;10.32;2.40;;;10.70;99.90;;;;;;5051398;28;20469;-91
2023/12/24 09:26:56;;;;;;;11.90;2.25;;;10.50;99.90;;;;;;5066896;28;20269;-91
2023/12/24 09:29:22;;;;;;;9.82;2.60;;;10.40;99.90;;;;;;5032188;28;20036;-90
2023/12/24 09:31:48;;;;;;;8.35;2.30;;;10.40;99.90;;;;;;5063831;28;20044;-91
2023/12/24 09:34:14;;;;;;;9.25;2.30;;;10.40;99.90;;;;;;5049713;28;20095;-90
2023/12/24 09:36:39;;;;;;;10.30;2.28;;;10.40;99.90;;;;;;5066486;28;20032;-90
2023/12/24 09:39:05;;;;;;;10.55;2.38;;;10.40;99.90;;;;;;5025195;28;20037;-91
2023/12/24 09:41:31;;;;;;;8.00;2.38;;;10.40;99.90;;;;;;5025877;28;20473;-91
2023/12/24 09:43:57;;;;;;;13.32;2.70;;;10.40;99.90;;;;;;5006492;28;20024;-91
2023/12/24 09:46:23;;;;;;;11.02;2.38;;;10.30;99.90;;;;;;5009289;28;20950;-92
2023/12/24 09:48:49;;;;;;;10.05;2.40;;;10.60;99.90;;;;;;5055154;28;20025;-91
2023/12/24 09:51:15;;;;;;;9.52;2.30;;;10.60;99.90;;;;;;5042457;28;20052;-92
2023/12/24 09:53:46;;;;;;;8.52;2.30;;;10.70;99.90;;;;;;5038084;28;20174;-92
2023/12/24 09:56:11;;;;;;;9.93;2.10;;;10.40;99.90;;;;;;5060126;28;20021;-92
2023/12/24 09:58:37;;;;;;;10.35;2.05;;;10.60;99.90;;;;;;5043113;28;20233;-92
2023/12/24 10:01:03;;;;;;;11.18;2.92;;;10.50;99.90;;;;;;5030976;28;20027;-92
2023/12/24 10:03:29;;;;;;;11.27;2.30;;;10.60;99.90;;;;;;5044405;28;20071;-92
2023/12/24 10:05:59;;;;;;;11.35;2.60;;;10.50;99.90;;;;;;5029252;28;20103;-92
2023/12/24 10:08:25;;;;;;;10.27;2.35;;;10.80;99.90;;;;;;5042543;28;20041;-91
2023/12/24 10:10:51;;;;;;;9.57;2.33;;;10.70;99.90;;;;;;5062814;28;20063;-91
2023/12/24 10:13:20;;;;;;;12.90;2.17;;;10.80;99.90;;;;;;5029032;28;20048;-92
2023/12/24 10:15:47;;;;;;;9.15;2.50;;;10.50;99.90;;;;;;5029733;28;20178;-91
2023/12/24 10:18:17;;;;;;;10.70;2.60;;;10.80;99.90;;;;;;5061945;28;20095;-90
2023/12/24 10:20:42;;;;;;;8.85;2.13;;;10.60;99.90;;;;;;5061110;28;20082;-91
2023/12/24 10:23:08;;;;;;;9.82;2.42;;;10.50;99.90;;;;;;5014902;28;20060;-91
2023/12/24 10:25:34;;;;;;;10.38;2.35;;;10.40;99.90;;;;;;5012930;28;21169;-92
2023/12/24 10:28:07;;;;;;;11.43;3.20;;;10.50;99.90;;;;;;5042979;28;20147;-91
2023/12/24 10:30:33;;;;;;;12.80;2.50;;;10.60;99.90;;;;;;5041803;28;20036;-92
2023/12/24 10:33:09;;;;;;;9.57;2.25;;;10.50;99.90;;;;;;5043948;28;20041;-92
2023/12/24 10:35:35;;;;;;;9.63;2.75;;;10.80;99.90;;;;;;5043804;28;20043;-89
2023/12/24 10:38:13;;;;;;;12.90;2.70;;;10.50;99.90;;;;;;5043350;28;20041;-92
2023/12/24 10:40:39;;;;;;;10.18;2.50;;;10.60;99.90;;;;;;5059037;28;20041;-91
2023/12/24 10:43:05;;;;;;;11.82;2.42;;;10.70;99.90;;;;;;5047831;28;20075;-91
2023/12/24 10:45:31;;;;;;;10.32;2.80;;;10.80;99.90;;;;;;5046839;28;20056;-92
2023/12/24 10:47:56;;;;;;;7.78;2.20;;;11.00;99.90;;;;;;5060749;28;20066;-92
2023/12/24 10:50:22;;;;;;;13.27;2.42;;;10.80;99.90;;;;;;5063351;28;20055;-91
2023/12/24 10:52:48;;;;;;;10.07;2.33;;;11.00;99.90;;;;;;5031327;28;20040;-92
2023/12/24 10:55:14;;;;;;;9.88;2.28;;;10.60;99.90;;;;;;5032276;28;20028;-91
2023/12/24 10:57:59;;;;;;;8.55;2.03;;;10.70;99.90;;;;;;5062539;28;20025;-91
2023/12/24 11:00:25;;;;;;;14.57;2.33;;;10.80;99.90;;;;;;5093305;28;20044;-91
2023/12/24 11:02:51;;;;;;;11.00;2.38;;;10.80;99.90;;;;;;5077386;28;20082;-92
2023/12/24 11:05:42;;;;;;;11.98;2.05;;;10.80;99.90;;;;;;5029130;28;20029;-91
2023/12/24 11:08:23;;;;;;;9.18;2.25;;;10.80;99.90;;;;;;5063257;28;20048;-92
2023/12/24 11:10:55;;;;;;;11.77;2.63;;;11.10;99.90;;;;;;5061794;28;20029;-91
2023/12/24 11:13:31;;;;;;;9.45;2.42;;;10.80;99.90;;;;;;5064605;28;20533;-93
2023/12/24 11:15:58;;;;;;;9.45;2.40;;;11.10;99.90;;;;;;5081678;28;20182;-92
2023/12/24 11:18:39;;;;;;;11.73;2.25;;;11.00;99.90;;;;;;5061772;28;20024;-91
2023/12/24 11:21:04;;;;;;;11.18;2.30;;;11.00;99.90;;;;;;5073597;28;20067;-92
2023/12/24 11:23:30;;;;;;;8.93;2.20;;;11.20;99.90;;;;;;5046230;28;20024;-90
2023/12/24 11:25:56;;;;;;;7.55;2.22;;;11.10;99.90;;;;;;5060156;28;20333;-90
2023/12/24 11:28:25;;;;;;;8.75;2.30;;;11.20;99.90;;;;;;5077660;28;20029;-91
2023/12/24 11:30:51;;;;;;;10.60;2.58;;;11.00;99.90;;;;;;5063066;28;20275;-91
2023/12/24 11:33:29;;;;;;;11.00;2.30;;;11.00;99.90;;;;;;5061078;28;20047;-89
2023/12/24 11:36:00;;;;;;;12.13;2.28;;;11.40;99.90;;;;;;5080415;28;20067;-92
2023/12/24 11:38:35;;;;;;;10.70;2.15;;;11.20;99.90;;;;;;5063346;28;20163;-91
2023/12/24 11:41:07;;;;;;;11.93;2.65;;;11.10;99.90;;;;;;5064695;28;20044;-91
2023/12/24 11:43:33;;;;;;;11.60;2.30;;;11.10;99.90;;;;;;5047257;28;20078;-91
2023/12/24 11:45:59;;;;;;;12.52;2.33;;;11.10;99.90;;;;;;5056791;28;20100;-90
2023/12/24 11:48:29;;;;;;;10.88;2.60;;;11.00;99.90;;;;;;5047821;28;20024;-90
2023/12/24 11:51:01;;;;;;;8.90;2.08;;;11.20;99.90;;;;;;5074491;28;20020;-92
2023/12/24 11:53:30;;;;;;;9.77;2.30;;;10.90;99.90;;;;;;5059746;28;20048;-92
2023/12/24 11:56:08;;;;;;;11.25;2.47;;;10.90;99.90;;;;;;5060537;28;20113;-91
2023/12/24 11:58:35;;;;;;;9.55;2.30;;;11.30;99.90;;;;;;5064801;28;20310;-91
2023/12/24 12:01:02;;;;;;;12.57;2.42;;;11.10;99.90;;;;;;5045421;28;20035;-91
2023/12/24 12:03:32;;;;;;;10.95;2.45;;;11.20;99.90;;;;;;5064366;28;20048;-91
2023/12/24 12:05:58;;;;;;;11.55;2.33;;;11.00;99.90;;;;;;5053662;28;20335;-90
2023/12/24 12:08:24;;;;;;;9.68;2.50;;;11.10;99.90;;;;;;5061321;28;20118;-90
2023/12/24 12:10:51;;;;;;;11.32;2.53;;;11.30;99.90;;;;;;5040738;28;20159;-92
2023/12/24 12:13:17;;;;;;;9.55;2.60;;;11.30;99.90;;;;;;5061884;28;20044;-91
2023/12/24 12:15:43;;;;;;;12.68;2.60;;;11.10;99.90;;;;;;5078075;28;20423;-91
2023/12/24 12:18:09;;;;;;;10.10;2.83;;;11.10;99.90;;;;;;5028469;28;20028;-91
2023/12/24 12:20:35;;;;;;;9.40;2.40;;;11.20;99.90;;;;;;5063732;28;20042;-91
2023/12/24 12:23:01;;;;;;;9.73;2.55;;;11.00;99.90;;;;;;5045162;28;20093;-91
2023/12/24 12:25:28;;;;;;;9.80;2.20;;;11.30;99.90;;;;;;5046342;28;20032;-92
2023/12/24 12:27:54;;;;;;;13.55;2.75;;;11.10;99.90;;;;;;5059370;28;20042;-92
2023/12/24 12:30:21;;;;;;;11.13;2.55;;;11.20;99.90;;;;;;5077046;28;21385;-91
2023/12/24 12:32:48;;;;;;;8.02;2.20;;;11.40;99.90;;;;;;5059243;28;20298;-92
2023/12/24 12:35:14;;;;;;;9.40;2.38;;;11.20;99.90;;;;;;5044158;28;20111;-91
2023/12/24 12:37:40;;;;;;;7.97;2.10;;;11.10;99.90;;;;;;5077691;28;20021;-93
2023/12/24 12:40:07;;;;;;;9.68;2.63;;;11.40;99.90;;;;;;5040631;28;20075;-91
2023/12/24 12:42:34;;;;;;;12.85;2.55;;;11.30;99.90;;;;;;5077501;28;20060;-92
2023/12/24 12:45:00;;;;;;;11.68;2.47;;;11.20;99.90;;;;;;5072891;28;20074;-92